sensor_id;sensor_type;location;lat;lon;timestamp;temperature;humidity
51175;DHT22;37240;50.104;20.010;2023-11-21T00:02:53;12.20;99.90
51175;DHT22;37240;50.104;20.010;2023-11-21T00:07:54;12.20;99.90
51175;DHT22;37240;50.104;20.010;2023-11-21T00:12:54;12.10;99.90
51175;DHT22;37240;50.104;20.010;2023-11-21T00:17:55;12.10;99.90
51175;DHT22;37240;50.104;20.010;2023-11-21T00:22:56;12.10;99.90
51175;DHT22;37240;50.104;20.010;2023-11-21T00:27:56;12.10;99.90
51175;DHT22;37240;50.104;20.010;2023-11-21T00:32:57;12.10;99.90
51175;DHT22;37240;50.104;20.010;2023-11-21T00:37:57;12.10;99.90
51175;DHT22;37240;50.104;20.010;2023-11-21T00:42:58;12.10;99.90
51175;DHT22;37240;50.104;20.010;2023-11-21T00:47:58;12.10;99.90
51175;DHT22;37240;50.104;20.010;2023-11-21T00:52:59;12.20;99.90
51175;DHT22;37240;50.104;20.010;2023-11-21T00:58:00;12.10;99.90
51175;DHT22;37240;50.104;20.010;2023-11-21T01:03:00;12.20;99.90
51175;DHT22;37240;50.104;20.010;2023-11-21T01:08:01;12.10;99.90
51175;DHT22;37240;50.104;20.010;2023-11-21T01:13:02;12.00;99.90
51175;DHT22;37240;50.104;20.010;2023-11-21T01:18:03;12.10;99.90
51175;DHT22;37240;50.104;20.010;2023-11-21T01:23:03;12.10;99.90
51175;DHT22;37240;50.104;20.010;2023-11-21T01:28:04;12.10;99.90
51175;DHT22;37240;50.104;20.010;2023-11-21T01:33:04;12.10;99.90
51175;DHT22;37240;50.104;20.010;2023-11-21T01:38:05;12.10;99.90
51175;DHT22;37240;50.104;20.010;2023-11-21T01:43:05;12.10;99.90
51175;DHT22;37240;50.104;20.010;2023-11-21T01:48:06;12.20;99.90
51175;DHT22;37240;50.104;20.010;2023-11-21T01:53:06;12.10;99.90
51175;DHT22;37240;50.104;20.010;2023-11-21T01:58:07;12.10;99.90
51175;DHT22;37240;50.104;20.010;2023-11-21T02:03:08;12.10;99.90
51175;DHT22;37240;50.104;20.010;2023-11-21T02:08:08;12.10;99.90
51175;DHT22;37240;50.104;20.010;2023-11-21T02:13:09;12.10;99.90
51175;DHT22;37240;50.104;20.010;2023-11-21T02:18:09;12.10;99.90
51175;DHT22;37240;50.104;20.010;2023-11-21T02:23:10;12.10;99.90
51175;DHT22;37240;50.104;20.010;2023-11-21T02:28:10;12.20;99.90
51175;DHT22;37240;50.104;20.010;2023-11-21T02:33:11;12.10;99.90
51175;DHT22;37240;50.104;20.010;2023-11-21T02:38:11;12.20;99.90
51175;DHT22;37240;50.104;20.010;2023-11-21T02:43:12;12.20;99.90
51175;DHT22;37240;50.104;20.010;2023-11-21T02:48:13;12.10;99.90
51175;DHT22;37240;50.104;20.010;2023-11-21T02:53:13;12.10;99.90
51175;DHT22;37240;50.104;20.010;2023-11-21T02:58:14;12.20;99.90
51175;DHT22;37240;50.104;20.010;2023-11-21T03:03:14;12.10;99.90
51175;DHT22;37240;50.104;20.010;2023-11-21T03:08:15;12.00;99.90
51175;DHT22;37240;50.104;20.010;2023-11-21T03:13:15;11.90;99.90
51175;DHT22;37240;50.104;20.010;2023-11-21T03:18:16;11.80;99.90
51175;DHT22;37240;50.104;20.010;2023-11-21T03:23:16;11.80;99.90
51175;DHT22;37240;50.104;20.010;2023-11-21T03:28:17;11.80;99.90
51175;DHT22;37240;50.104;20.010;2023-11-21T03:33:17;11.90;99.90
51175;DHT22;37240;50.104;20.010;2023-11-21T03:38:18;11.90;99.90
51175;DHT22;37240;50.104;20.010;2023-11-21T03:43:19;11.90;99.90
51175;DHT22;37240;50.104;20.010;2023-11-21T03:48:19;11.90;99.90
51175;DHT22;37240;50.104;20.010;2023-11-21T03:53:20;11.90;99.90
51175;DHT22;37240;50.104;20.010;2023-11-21T03:58:20;11.90;99.90
51175;DHT22;37240;50.104;20.010;2023-11-21T04:03:21;11.90;99.90
51175;DHT22;37240;50.104;20.010;2023-11-21T04:08:21;11.90;99.90
51175;DHT22;37240;50.104;20.010;2023-11-21T04:13:22;12.00;99.90
51175;DHT22;37240;50.104;20.010;2023-11-21T04:18:22;11.80;99.90
51175;DHT22;37240;50.104;20.010;2023-11-21T04:23:23;11.80;99.90
51175;DHT22;37240;50.104;20.010;2023-11-21T04:28:23;11.80;99.90
51175;DHT22;37240;50.104;20.010;2023-11-21T04:33:24;11.80;99.90
51175;DHT22;37240;50.104;20.010;2023-11-21T04:38:25;11.70;99.90
51175;DHT22;37240;50.104;20.010;2023-11-21T04:43:25;11.80;99.90
51175;DHT22;37240;50.104;20.010;2023-11-21T04:48:26;11.80;99.90
51175;DHT22;37240;50.104;20.010;2023-11-21T04:53:26;11.80;99.90
51175;DHT22;37240;50.104;20.010;2023-11-21T04:58:27;11.90;99.90
51175;DHT22;37240;50.104;20.010;2023-11-21T05:03:27;11.80;99.90
51175;DHT22;37240;50.104;20.010;2023-11-21T05:08:28;11.80;99.90
51175;DHT22;37240;50.104;20.010;2023-11-21T05:13:28;11.70;99.90
51175;DHT22;37240;50.104;20.010;2023-11-21T05:18:29;11.70;99.90
51175;DHT22;37240;50.104;20.010;2023-11-21T05:23:29;11.80;99.90
51175;DHT22;37240;50.104;20.010;2023-11-21T05:28:30;11.70;99.90
51175;DHT22;37240;50.104;20.010;2023-11-21T05:33:30;11.70;99.90
51175;DHT22;37240;50.104;20.010;2023-11-21T05:38:31;11.60;99.90
51175;DHT22;37240;50.104;20.010;2023-11-21T05:43:31;11.70;99.90
51175;DHT22;37240;50.104;20.010;2023-11-21T05:48:32;11.60;99.90
51175;DHT22;37240;50.104;20.010;2023-11-21T05:53:33;11.60;99.90
51175;DHT22;37240;50.104;20.010;2023-11-21T05:58:33;11.60;99.90
51175;DHT22;37240;50.104;20.010;2023-11-21T06:03:34;11.60;99.90
51175;DHT22;37240;50.104;20.010;2023-11-21T06:08:34;11.60;99.90
51175;DHT22;37240;50.104;20.010;2023-11-21T06:13:35;11.60;99.90
51175;DHT22;37240;50.104;20.010;2023-11-21T06:18:35;11.70;99.90
51175;DHT22;37240;50.104;20.010;2023-11-21T06:23:36;11.70;99.90
51175;DHT22;37240;50.104;20.010;2023-11-21T06:28:36;11.70;99.90
51175;DHT22;37240;50.104;20.010;2023-11-21T06:33:37;11.70;99.90
51175;DHT22;37240;50.104;20.010;2023-11-21T06:38:38;11.70;99.90
51175;DHT22;37240;50.104;20.010;2023-11-21T06:43:38;11.60;99.90
51175;DHT22;37240;50.104;20.010;2023-11-21T06:48:39;11.60;99.90
51175;DHT22;37240;50.104;20.010;2023-11-21T06:53:40;11.60;99.90
51175;DHT22;37240;50.104;20.010;2023-11-21T06:58:40;11.70;99.90
51175;DHT22;37240;50.104;20.010;2023-11-21T07:03:41;11.70;99.90
51175;DHT22;37240;50.104;20.010;2023-11-21T07:08:42;11.60;99.90
51175;DHT22;37240;50.104;20.010;2023-11-21T07:13:42;11.70;99.90
51175;DHT22;37240;50.104;20.010;2023-11-21T07:18:43;11.70;99.90
51175;DHT22;37240;50.104;20.010;2023-11-21T07:23:43;11.70;99.90
51175;DHT22;37240;50.104;20.010;2023-11-21T07:28:44;11.70;99.90
51175;DHT22;37240;50.104;20.010;2023-11-21T07:33:45;11.70;99.90
51175;DHT22;37240;50.104;20.010;2023-11-21T07:38:46;11.70;99.90
51175;DHT22;37240;50.104;20.010;2023-11-21T07:43:47;11.70;99.90
51175;DHT22;37240;50.104;20.010;2023-11-21T07:48:47;11.80;99.90
51175;DHT22;37240;50.104;20.010;2023-11-21T07:53:48;11.80;99.90
51175;DHT22;37240;50.104;20.010;2023-11-21T07:58:48;11.80;99.90
51175;DHT22;37240;50.104;20.010;2023-11-21T08:03:49;11.80;99.90
51175;DHT22;37240;50.104;20.010;2023-11-21T08:08:49;11.90;99.90
51175;DHT22;37240;50.104;20.010;2023-11-21T08:13:50;11.90;99.90
51175;DHT22;37240;50.104;20.010;2023-11-21T08:18:50;12.00;99.90
51175;DHT22;37240;50.104;20.010;2023-11-21T08:23:51;12.00;99.90
51175;DHT22;37240;50.104;20.010;2023-11-21T08:28:51;12.10;99.90
51175;DHT22;37240;50.104;20.010;2023-11-21T08:33:52;12.10;99.90
51175;DHT22;37240;50.104;20.010;2023-11-21T08:38:52;12.10;99.90
51175;DHT22;37240;50.104;20.010;2023-11-21T08:43:53;12.20;99.90
51175;DHT22;37240;50.104;20.010;2023-11-21T08:48:53;12.20;99.90
51175;DHT22;37240;50.104;20.010;2023-11-21T08:53:54;12.20;99.90
51175;DHT22;37240;50.104;20.010;2023-11-21T08:58:55;12.20;99.90
51175;DHT22;37240;50.104;20.010;2023-11-21T09:03:55;12.20;99.90
51175;DHT22;37240;50.104;20.010;2023-11-21T09:08:56;12.30;99.90
51175;DHT22;37240;50.104;20.010;2023-11-21T09:13:56;12.30;99.90
51175;DHT22;37240;50.104;20.010;2023-11-21T09:18:57;12.30;99.90
51175;DHT22;37240;50.104;20.010;2023-11-21T09:23:57;12.30;99.90
51175;DHT22;37240;50.104;20.010;2023-11-21T09:28:58;12.40;99.90
51175;DHT22;37240;50.104;20.010;2023-11-21T09:33:58;12.30;99.90
51175;DHT22;37240;50.104;20.010;2023-11-21T09:38:59;12.30;99.90
51175;DHT22;37240;50.104;20.010;2023-11-21T09:44:00;12.30;99.90
51175;DHT22;37240;50.104;20.010;2023-11-21T09:49:02;12.30;99.90
51175;DHT22;37240;50.104;20.010;2023-11-21T09:54:04;12.40;99.90
51175;DHT22;37240;50.104;20.010;2023-11-21T09:59:06;12.40;99.90
51175;DHT22;37240;50.104;20.010;2023-11-21T10:04:07;12.50;99.90
51175;DHT22;37240;50.104;20.010;2023-11-21T10:09:12;12.50;99.90
51175;DHT22;37240;50.104;20.010;2023-11-21T10:14:14;12.40;99.90
51175;DHT22;37240;50.104;20.010;2023-11-21T10:19:17;12.40;99.90
51175;DHT22;37240;50.104;20.010;2023-11-21T10:24:18;12.60;99.90
51175;DHT22;37240;50.104;20.010;2023-11-21T10:29:18;12.60;99.90
51175;DHT22;37240;50.104;20.010;2023-11-21T10:34:20;12.70;99.90
51175;DHT22;37240;50.104;20.010;2023-11-21T10:39:20;12.80;99.90
51175;DHT22;37240;50.104;20.010;2023-11-21T10:44:21;12.90;99.90
51175;DHT22;37240;50.104;20.010;2023-11-21T10:49:25;13.00;99.90
51175;DHT22;37240;50.104;20.010;2023-11-21T10:54:26;13.10;99.90
51175;DHT22;37240;50.104;20.010;2023-11-21T10:59:29;13.10;99.90
51175;DHT22;37240;50.104;20.010;2023-11-21T11:04:30;13.00;99.90
51175;DHT22;37240;50.104;20.010;2023-11-21T11:09:32;13.00;99.90
51175;DHT22;37240;50.104;20.010;2023-11-21T11:14:33;13.10;99.90
51175;DHT22;37240;50.104;20.010;2023-11-21T11:19:34;12.90;99.90
51175;DHT22;37240;50.104;20.010;2023-11-21T11:30:16;12.80;99.90
51175;DHT22;37240;50.104;20.010;2023-11-21T11:35:46;12.70;99.90
51175;DHT22;37240;50.104;20.010;2023-11-21T11:40:53;12.70;99.90
51175;DHT22;37240;50.104;20.010;2023-11-21T11:45:57;12.70;99.90
51175;DHT22;37240;50.104;20.010;2023-11-21T11:51:12;12.70;99.90
51175;DHT22;37240;50.104;20.010;2023-11-21T11:56:22;12.60;99.90
51175;DHT22;37240;50.104;20.010;2023-11-21T12:01:26;12.60;99.90
51175;DHT22;37240;50.104;20.010;2023-11-21T12:06:35;12.70;99.90
51175;DHT22;37240;50.104;20.010;2023-11-21T12:11:37;12.70;99.90
51175;DHT22;37240;50.104;20.010;2023-11-21T12:16:37;12.70;99.90
51175;DHT22;37240;50.104;20.010;2023-11-21T12:21:38;12.80;99.90
51175;DHT22;37240;50.104;20.010;2023-11-21T12:26:40;12.90;99.90
51175;DHT22;37240;50.104;20.010;2023-11-21T12:31:42;12.90;99.90
51175;DHT22;37240;50.104;20.010;2023-11-21T12:36:42;12.90;99.90
51175;DHT22;37240;50.104;20.010;2023-11-21T12:41:43;12.90;99.90
51175;DHT22;37240;50.104;20.010;2023-11-21T12:46:43;12.90;99.90
51175;DHT22;37240;50.104;20.010;2023-11-21T12:51:45;12.90;99.90
51175;DHT22;37240;50.104;20.010;2023-11-21T12:56:46;12.90;99.90
51175;DHT22;37240;50.104;20.010;2023-11-21T13:01:47;12.90;99.90
51175;DHT22;37240;50.104;20.010;2023-11-21T13:06:47;12.90;99.90
51175;DHT22;37240;50.104;20.010;2023-11-21T13:11:48;12.90;99.90
51175;DHT22;37240;50.104;20.010;2023-11-21T13:16:48;12.90;99.90
51175;DHT22;37240;50.104;20.010;2023-11-21T13:21:49;12.80;99.90
51175;DHT22;37240;50.104;20.010;2023-11-21T13:26:50;12.70;99.90
51175;DHT22;37240;50.104;20.010;2023-11-21T13:31:50;12.80;99.90
51175;DHT22;37240;50.104;20.010;2023-11-21T13:36:51;12.70;99.90
51175;DHT22;37240;50.104;20.010;2023-11-21T13:41:51;12.70;99.90
51175;DHT22;37240;50.104;20.010;2023-11-21T13:46:52;12.70;99.90
51175;DHT22;37240;50.104;20.010;2023-11-21T13:51:52;12.70;99.90
51175;DHT22;37240;50.104;20.010;2023-11-21T13:56:53;12.70;99.90
51175;DHT22;37240;50.104;20.010;2023-11-21T14:01:54;12.70;99.90
51175;DHT22;37240;50.104;20.010;2023-11-21T14:06:55;12.80;99.90
51175;DHT22;37240;50.104;20.010;2023-11-21T14:11:56;12.80;99.90
51175;DHT22;37240;50.104;20.010;2023-11-21T14:16:56;12.90;99.90
51175;DHT22;37240;50.104;20.010;2023-11-21T14:21:57;13.00;99.90
51175;DHT22;37240;50.104;20.010;2023-11-21T14:26:57;12.90;99.90
51175;DHT22;37240;50.104;20.010;2023-11-21T14:31:58;12.90;99.90
51175;DHT22;37240;50.104;20.010;2023-11-21T14:36:58;12.90;99.80
51175;DHT22;37240;50.104;20.010;2023-11-21T14:41:59;12.80;99.90
51175;DHT22;37240;50.104;20.010;2023-11-21T14:47:00;12.70;99.60
51175;DHT22;37240;50.104;20.010;2023-11-21T14:52:00;12.70;99.70
51175;DHT22;37240;50.104;20.010;2023-11-21T14:57:01;12.60;99.70
51175;DHT22;37240;50.104;20.010;2023-11-21T15:02:01;12.60;99.90
51175;DHT22;37240;50.104;20.010;2023-11-21T15:07:03;12.50;99.90
51175;DHT22;37240;50.104;20.010;2023-11-21T15:12:04;12.50;99.90
51175;DHT22;37240;50.104;20.010;2023-11-21T15:17:04;12.50;99.90
51175;DHT22;37240;50.104;20.010;2023-11-21T15:22:05;12.50;99.90
51175;DHT22;37240;50.104;20.010;2023-11-21T15:27:05;12.50;99.90
51175;DHT22;37240;50.104;20.010;2023-11-21T15:32:06;12.50;99.90
51175;DHT22;37240;50.104;20.010;2023-11-21T15:37:08;12.50;99.90
51175;DHT22;37240;50.104;20.010;2023-11-21T15:42:09;12.50;99.90
51175;DHT22;37240;50.104;20.010;2023-11-21T15:47:09;12.40;99.90
51175;DHT22;37240;50.104;20.010;2023-11-21T15:52:10;12.40;99.90
51175;DHT22;37240;50.104;20.010;2023-11-21T15:57:10;12.30;99.90
51175;DHT22;37240;50.104;20.010;2023-11-21T16:02:11;12.40;99.90
51175;DHT22;37240;50.104;20.010;2023-11-21T16:07:11;12.40;99.90
51175;DHT22;37240;50.104;20.010;2023-11-21T16:12:12;12.30;99.90
51175;DHT22;37240;50.104;20.010;2023-11-21T16:17:13;12.30;99.90
51175;DHT22;37240;50.104;20.010;2023-11-21T16:22:13;12.20;99.90
51175;DHT22;37240;50.104;20.010;2023-11-21T16:27:14;12.30;99.90
51175;DHT22;37240;50.104;20.010;2023-11-21T16:32:14;12.30;99.90
51175;DHT22;37240;50.104;20.010;2023-11-21T16:37:15;12.20;99.90
51175;DHT22;37240;50.104;20.010;2023-11-21T16:42:16;12.20;99.90
51175;DHT22;37240;50.104;20.010;2023-11-21T16:47:16;12.20;99.90
51175;DHT22;37240;50.104;20.010;2023-11-21T16:52:17;12.20;99.90
51175;DHT22;37240;50.104;20.010;2023-11-21T16:57:18;12.20;99.90
51175;DHT22;37240;50.104;20.010;2023-11-21T17:02:18;12.10;99.90
51175;DHT22;37240;50.104;20.010;2023-11-21T17:07:19;12.10;99.90
51175;DHT22;37240;50.104;20.010;2023-11-21T17:12:19;12.20;99.90
51175;DHT22;37240;50.104;20.010;2023-11-21T17:17:20;12.10;99.90
51175;DHT22;37240;50.104;20.010;2023-11-21T17:22:20;12.20;99.90
51175;DHT22;37240;50.104;20.010;2023-11-21T17:27:21;12.10;99.90
51175;DHT22;37240;50.104;20.010;2023-11-21T17:32:22;12.10;99.90
51175;DHT22;37240;50.104;20.010;2023-11-21T17:37:22;12.10;99.90
51175;DHT22;37240;50.104;20.010;2023-11-21T17:42:23;12.10;99.90
51175;DHT22;37240;50.104;20.010;2023-11-21T17:47:23;12.00;99.90
51175;DHT22;37240;50.104;20.010;2023-11-21T17:52:24;11.90;99.90
51175;DHT22;37240;50.104;20.010;2023-11-21T17:57:24;11.70;99.90
51175;DHT22;37240;50.104;20.010;2023-11-21T18:02:25;11.30;99.90
51175;DHT22;37240;50.104;20.010;2023-11-21T18:07:26;11.10;99.90
51175;DHT22;37240;50.104;20.010;2023-11-21T18:12:26;10.90;99.90
51175;DHT22;37240;50.104;20.010;2023-11-21T18:17:27;10.70;99.90
51175;DHT22;37240;50.104;20.010;2023-11-21T18:22:27;10.50;99.90
51175;DHT22;37240;50.104;20.010;2023-11-21T18:27:28;10.30;99.90
51175;DHT22;37240;50.104;20.010;2023-11-21T18:32:29;10.20;99.90
51175;DHT22;37240;50.104;20.010;2023-11-21T18:37:29;10.00;99.90
51175;DHT22;37240;50.104;20.010;2023-11-21T18:42:30;9.90;99.90
51175;DHT22;37240;50.104;20.010;2023-11-21T18:47:31;9.70;99.90
51175;DHT22;37240;50.104;20.010;2023-11-21T18:52:31;9.70;99.90
51175;DHT22;37240;50.104;20.010;2023-11-21T18:57:32;9.70;99.90
51175;DHT22;37240;50.104;20.010;2023-11-21T19:02:34;9.40;99.90
51175;DHT22;37240;50.104;20.010;2023-11-21T19:07:34;9.20;99.90
51175;DHT22;37240;50.104;20.010;2023-11-21T19:12:35;9.10;99.90
51175;DHT22;37240;50.104;20.010;2023-11-21T19:17:36;8.90;99.90
51175;DHT22;37240;50.104;20.010;2023-11-21T19:22:36;8.80;99.90
51175;DHT22;37240;50.104;20.010;2023-11-21T19:27:38;8.60;99.90
51175;DHT22;37240;50.104;20.010;2023-11-21T19:32:38;8.60;99.90
51175;DHT22;37240;50.104;20.010;2023-11-21T19:37:39;8.40;99.90
51175;DHT22;37240;50.104;20.010;2023-11-21T19:42:39;8.30;99.90
51175;DHT22;37240;50.104;20.010;2023-11-21T19:47:40;8.20;99.90
51175;DHT22;37240;50.104;20.010;2023-11-21T19:52:40;8.10;99.90
51175;DHT22;37240;50.104;20.010;2023-11-21T19:57:41;8.00;99.90
51175;DHT22;37240;50.104;20.010;2023-11-21T20:02:42;7.90;99.90
51175;DHT22;37240;50.104;20.010;2023-11-21T20:07:42;7.90;99.90
51175;DHT22;37240;50.104;20.010;2023-11-21T20:12:43;7.70;99.90
51175;DHT22;37240;50.104;20.010;2023-11-21T20:17:43;7.60;99.90
51175;DHT22;37240;50.104;20.010;2023-11-21T20:22:44;7.70;99.90
51175;DHT22;37240;50.104;20.010;2023-11-21T20:27:45;7.60;99.90
51175;DHT22;37240;50.104;20.010;2023-11-21T20:32:45;7.50;99.90
51175;DHT22;37240;50.104;20.010;2023-11-21T20:37:46;7.50;99.90
51175;DHT22;37240;50.104;20.010;2023-11-21T20:42:47;7.60;99.90
51175;DHT22;37240;50.104;20.010;2023-11-21T20:47:47;7.40;99.90
51175;DHT22;37240;50.104;20.010;2023-11-21T20:52:48;7.40;99.90
51175;DHT22;37240;50.104;20.010;2023-11-21T20:57:49;7.20;99.90
51175;DHT22;37240;50.104;20.010;2023-11-21T21:02:49;7.20;99.90
51175;DHT22;37240;50.104;20.010;2023-11-21T21:07:50;7.10;99.90
51175;DHT22;37240;50.104;20.010;2023-11-21T21:12:51;7.10;99.90
51175;DHT22;37240;50.104;20.010;2023-11-21T21:17:51;6.90;99.90
51175;DHT22;37240;50.104;20.010;2023-11-21T21:22:52;6.80;99.90
51175;DHT22;37240;50.104;20.010;2023-11-21T21:27:52;6.70;99.90
51175;DHT22;37240;50.104;20.010;2023-11-21T21:32:53;6.70;99.90
51175;DHT22;37240;50.104;20.010;2023-11-21T21:37:55;6.60;99.90
51175;DHT22;37240;50.104;20.010;2023-11-21T21:42:56;6.60;99.90
51175;DHT22;37240;50.104;20.010;2023-11-21T21:47:56;6.50;99.90
51175;DHT22;37240;50.104;20.010;2023-11-21T21:52:57;6.40;99.90
51175;DHT22;37240;50.104;20.010;2023-11-21T21:57:58;6.30;99.90
51175;DHT22;37240;50.104;20.010;2023-11-21T22:02:58;6.30;99.90
51175;DHT22;37240;50.104;20.010;2023-11-21T22:07:59;6.20;99.90
51175;DHT22;37240;50.104;20.010;2023-11-21T22:12:59;6.20;99.90
51175;DHT22;37240;50.104;20.010;2023-11-21T22:18:00;6.10;99.90
51175;DHT22;37240;50.104;20.010;2023-11-21T22:23:00;6.10;99.90
51175;DHT22;37240;50.104;20.010;2023-11-21T22:28:01;6.20;99.90
51175;DHT22;37240;50.104;20.010;2023-11-21T22:33:02;6.20;99.90
51175;DHT22;37240;50.104;20.010;2023-11-21T22:38:02;6.00;99.90
51175;DHT22;37240;50.104;20.010;2023-11-21T22:43:03;5.90;99.90
51175;DHT22;37240;50.104;20.010;2023-11-21T22:48:04;5.90;99.90
51175;DHT22;37240;50.104;20.010;2023-11-21T22:53:04;5.70;99.90
51175;DHT22;37240;50.104;20.010;2023-11-21T22:58:05;5.60;99.90
51175;DHT22;37240;50.104;20.010;2023-11-21T23:03:05;5.60;99.90
51175;DHT22;37240;50.104;20.010;2023-11-21T23:08:06;5.50;99.90
51175;DHT22;37240;50.104;20.010;2023-11-21T23:13:06;5.50;99.90
51175;DHT22;37240;50.104;20.010;2023-11-21T23:18:07;5.50;99.90
51175;DHT22;37240;50.104;20.010;2023-11-21T23:23:07;5.30;99.90
51175;DHT22;37240;50.104;20.010;2023-11-21T23:28:10;5.40;99.90
51175;DHT22;37240;50.104;20.010;2023-11-21T23:33:11;5.40;99.90
51175;DHT22;37240;50.104;20.010;2023-11-21T23:38:11;5.30;99.90
51175;DHT22;37240;50.104;20.010;2023-11-21T23:43:12;5.20;99.90
51175;DHT22;37240;50.104;20.010;2023-11-21T23:48:12;5.10;99.90
51175;DHT22;37240;50.104;20.010;2023-11-21T23:53:13;5.10;99.90
51175;DHT22;37240;50.104;20.010;2023-11-21T23:58:13;5.10;99.90
